WetterOnline ( https://www.wetteronline.de )

Wetter aktuell Spremberg

Aktuelles Wetter: Hoyerswerda (116m)

6-stündlich | Neueste Meldungen
Ortszeit Temperatur Wetter
Fr, 03.02. 7:00 5.7° C bewölkt
Fr, 03.02. 1:00 0.6° C bedeckt
Do, 02.02. 19:00 1.0° C bewölkt
Do, 02.02. 13:00 5.5° C bedeckt
Do, 02.02. 7:00 3.6° C Sprühregen
Do, 02.02. 1:00 3.5° C bewölkt
Mi, 01.02. 19:00 3.9° C leichter Regen
Mi, 01.02. 13:00 4.9° C Regen
Ortszeit Temperatur Wetter
Fr, 03.02. 10:00 6.4° C Sprühregen
Fr, 03.02. 9:50 6.4° C Sprühregen
Fr, 03.02. 9:40 6.4° C leichter Regen
Fr, 03.02. 9:30 6.4° C leichter Regen
Fr, 03.02. 9:20 6.4° C leichter Regen
Fr, 03.02. 9:10 6.2° C Regen
Fr, 03.02. 9:00 6.3° C Regen
Fr, 03.02. 8:30 6.2° C leichter Regen
Fr, 03.02. 8:00 6.1° C leichter Regen
Fr, 03.02. 7:30 6.0° C leichter Regen
Fr, 03.02. 7:00 5.7° C bewölkt
Ortszeit Relative Feuchte Sichtweite
Fr, 03.02. 7:00 92% 25 km
Fr, 03.02. 1:00 97% 17 km
Do, 02.02. 19:00 92% 50 km
Do, 02.02. 13:00 78% 40 km
Do, 02.02. 7:00 85% 30 km
Do, 02.02. 1:00 80% 45 km
Mi, 01.02. 19:00 85% 17 km
Mi, 01.02. 13:00 84% 60 km
Ortszeit Relative Feuchte Sichtweite
Fr, 03.02. 10:00 93% 9 km
Fr, 03.02. 9:50 93% -
Fr, 03.02. 9:40 93% -
Fr, 03.02. 9:30 93% 10 km
Fr, 03.02. 9:20 93% -
Fr, 03.02. 9:10 93% -
Fr, 03.02. 9:00 92% 8 km
Fr, 03.02. 8:30 91% 23 km
Fr, 03.02. 8:00 91% 10 km
Fr, 03.02. 7:30 91% 25 km
Fr, 03.02. 7:00 92% 25 km
Ortszeit Niederschlagsmenge Niederschlagsart
Fr, 03.02. 7:00 2 l/m2 in 12 Std. Regen
Fr, 03.02. 1:00 0.0 l/m2 in 6 Std. -
Do, 02.02. 19:00 3 l/m2 in 12 Std. Regen
Do, 02.02. 13:00 0.2 l/m2 in 6 Std. Regen
Do, 02.02. 7:00 0.1 l/m2 in 12 Std. Regen
Do, 02.02. 1:00 0.1 l/m2 in 6 Std. Regen
Mi, 01.02. 19:00 3 l/m2 in 12 Std. Regen
Mi, 01.02. 13:00 2 l/m2 in 6 Std. Regen
Ortszeit Niederschlagsmenge Niederschlagsart
Fr, 03.02. 10:00 1.2 l/m2 in 1 Std. Regen
Fr, 03.02. 9:50 keine Meldung -
Fr, 03.02. 9:40 keine Meldung -
Fr, 03.02. 9:30 1.0 l/m2 in 30 Min -
Fr, 03.02. 9:20 keine Meldung -
Fr, 03.02. 9:10 keine Meldung -
Fr, 03.02. 9:00 0.2 l/m2 in 1 Std. Regen
Fr, 03.02. 8:30 0.1 l/m2 in 30 Min -
Fr, 03.02. 8:00 <0.05 l/m2 in 1 Std. Regen
Fr, 03.02. 7:30 <0.05 l/m2 in 30 Min -
Fr, 03.02. 7:00 <0.05 l/m2 in 1 Std. Regen
Ortszeit Stärke Spitze Richtung
km/h Bft. km/h Grad Sektor
Fr, 03.02. 7:00 28 4 44 260° W
Fr, 03.02. 1:00 6 1 17 210° SW
Do, 02.02. 19:00 9 2 54 290° W
Do, 02.02. 13:00 29 5 58 280° W
Do, 02.02. 7:00 28 4 59 270° W
Do, 02.02. 1:00 32 5 50 270° W
Mi, 01.02. 19:00 36 5 65 260° W
Mi, 01.02. 13:00 31 5 57 270° W
Ortszeit Stärke Spitze Richtung
km/h Bft. km/h Grad Sektor
Fr, 03.02. 10:00 30 5 44 250° W
Fr, 03.02. 9:50 30 5 - 250° W
Fr, 03.02. 9:40 29 5 - 250° W
Fr, 03.02. 9:30 22 4 41 270° W
Fr, 03.02. 9:20 22 4 - 270° W
Fr, 03.02. 9:10 28 4 - 260° W
Fr, 03.02. 9:00 25 4 40 250° W
Fr, 03.02. 8:30 28 4 41 250° W
Fr, 03.02. 8:00 28 4 43 250° W
Fr, 03.02. 7:30 26 4 43 260° W
Fr, 03.02. 7:00 28 4 44 260° W
Ortszeit Untergrenze Bedeckung Gattung
total tief tief mittel hoch
Fr, 03.02. 7:00 330 m 8/8 7/8 - - -
Fr, 03.02. 1:00 2700 m 8/8 8/8 - - -
Do, 02.02. 19:00 6300 m 7/8 7/8 - - -
Do, 02.02. 13:00 630 m 8/8 8/8 - - -
Do, 02.02. 7:00 600 m 8/8 8/8 - - -
Do, 02.02. 1:00 630 m 7/8 7/8 - - -
Mi, 01.02. 19:00 540 m 8/8 7/8 - - -
Mi, 01.02. 13:00 480 m 7/8 7/8 - - -
Ortszeit Bedeckungsgrad in Achtel und Wolkenuntergrenze
Fr, 03.02. 10:00 6(300m) 7(540m) 8(960m)
Fr, 03.02. 9:50 6(300m) 7(540m) 8(960m)
Fr, 03.02. 9:40 8
Fr, 03.02. 9:30 4(270m) 7(810m) 7(930m)
Fr, 03.02. 9:20 4(270m) 7(810m) 7(930m)
Fr, 03.02. 9:10 7
Fr, 03.02. 9:00 3(420m) 5(630m) 8(810m)
Fr, 03.02. 8:30 4(330m) 7(960m)
Fr, 03.02. 8:00 6(330m) 7(570m) 8(1200m)
Fr, 03.02. 7:30 5(330m) 5(990m) 8(1500m)
Fr, 03.02. 7:00 6(330m) 7(1800m) 8(3600m)
Ortszeit Luftdruck NN (hPa) Tendenz (hPa in 3 Std.)
Fr, 03.02. 7:00 1017 - 3,7
Fr, 03.02. 1:00 1024 - 0,7
Do, 02.02. 19:00 1023 + 4,1
Do, 02.02. 13:00 1017 + 1,0
Do, 02.02. 7:00 1013 + 1,4
Do, 02.02. 1:00 1012 + 0,5
Mi, 01.02. 19:00 1010 - 0,4
Mi, 01.02. 13:00 1012 + 0,3
Ortszeit Luftdruck NN (hPa) Tendenz (hPa in 3 Std.)
Fr, 03.02. 10:00 1014 - 2,2
Fr, 03.02. 9:50 1014 keine Meldung
Fr, 03.02. 9:40 1014 keine Meldung
Fr, 03.02. 9:30 1015 - 2,1
Fr, 03.02. 9:20 1015 keine Meldung
Fr, 03.02. 9:10 1015 keine Meldung
Fr, 03.02. 9:00 1015 - 2,1
Fr, 03.02. 8:30 1015 - 2,4
Fr, 03.02. 8:00 1016 - 2,9
Fr, 03.02. 7:30 1017 - 3,1
Fr, 03.02. 7:00 1017 - 3,7
Ortszeit Schneehöhe (cm)
Fr, 03.02. 7:00 0
Fr, 03.02. 1:00 0
Do, 02.02. 19:00 0
Do, 02.02. 13:00 0
Do, 02.02. 7:00 0
Do, 02.02. 1:00 0
Mi, 01.02. 19:00 0
Mi, 01.02. 13:00 0
Ortszeit Schneehöhe (cm)
Fr, 03.02. 10:00 0
Fr, 03.02. 9:50 0
Fr, 03.02. 9:40 0
Fr, 03.02. 9:30 0
Fr, 03.02. 9:20 0
Fr, 03.02. 9:10 0
Fr, 03.02. 9:00 0
Fr, 03.02. 8:30 0
Fr, 03.02. 8:00 0
Fr, 03.02. 7:30 0
Fr, 03.02. 7:00 0
Link zu dieser Seite / Seite empfehlen

Das Wetter in ...